Time;durP1;ratioP1;P1;durP2;ratioP2;P2;SDS_P1;SDS_P2;PMS_P1;PMS_P2;Temp;Humidity;BMP_temperature;BMP_pressure;BME280_temperature;BME280_humidity;BME280_pressure;Samples;Min_cycle;Max_cycle;Signal;HPM_P1;HPM_P2
2023/06/29 00:00:21;;;;;;;;;;;;;;;24.33;45.77;101591.38;5057667;28;19913;-72
2023/06/29 00:02:47;;;;;;;;;;;;;;;24.33;45.73;101593.25;5049693;28;19923;-72
2023/06/29 00:05:12;;;;;;;;;;;;;;;24.33;45.41;101594.09;5066334;28;20057;-72
2023/06/29 00:07:37;;;;;;;;;;;;;;;24.26;45.58;101585.03;5053171;28;19913;-72
2023/06/29 00:10:03;;;;;;;;;;;;;;;24.32;45.33;101588.84;5040221;28;19913;-72
2023/06/29 00:12:29;;;;;;;;;;;;;;;24.32;45.63;101588.84;5068028;28;19921;-72
2023/06/29 00:14:54;;;;;;;;;;;;;;;24.32;45.42;101594.28;5061207;28;19928;-72
2023/06/29 00:17:20;;;;;;;;;;;;;;;24.32;45.59;101592.41;5058641;28;19931;-72
2023/06/29 00:19:47;;;;;;;;;;;;;;;24.31;45.52;101590.72;5068645;28;19931;-72
2023/06/29 00:22:13;;;;;;;;;;;;;;;24.32;45.77;101592.41;5052286;28;19917;-72
2023/06/29 00:24:42;;;;;;;;;;;;;;;24.31;45.61;101584.44;5070144;28;20365;-72
2023/06/29 00:27:07;;;;;;;;;;;;;;;24.30;45.48;101588.19;5061730;28;19924;-72
2023/06/29 00:29:32;;;;;;;;;;;;;;;24.30;45.58;101586.31;5061893;28;19913;-72
2023/06/29 00:31:57;;;;;;;;;;;;;;;24.31;45.68;101581.72;5064281;28;19933;-72
2023/06/29 00:34:22;;;;;;;;;;;;;;;24.31;45.72;101577.13;5063756;28;19917;-72
2023/06/29 00:36:48;;;;;;;;;;;;;;;24.30;45.68;101577.31;5057866;28;19921;-73
2023/06/29 00:39:13;;;;;;;;;;;;;;;24.29;45.79;101576.47;5065266;28;19916;-72
2023/06/29 00:41:38;;;;;;;;;;;;;;;24.29;45.91;101576.47;5065163;28;19962;-73
2023/06/29 00:44:03;;;;;;;;;;;;;;;24.28;45.79;101574.78;5053918;28;19912;-73
2023/06/29 00:46:28;;;;;;;;;;;;;;;24.28;45.63;101571.22;5075151;28;19913;-73
2023/06/29 00:48:54;;;;;;;;;;;;;;;24.28;45.67;101568.50;5039484;28;19924;-73
2023/06/29 00:51:19;;;;;;;;;;;;;;;24.28;45.91;101571.22;5066631;28;19931;-73
2023/06/29 00:53:44;;;;;;;;;;;;;;;24.28;45.69;101568.50;5072134;28;19913;-73
2023/06/29 00:56:09;;;;;;;;;;;;;;;24.28;45.73;101565.78;5061583;28;19939;-73
2023/06/29 00:58:35;;;;;;;;;;;;;;;24.27;45.80;101564.97;5068151;28;19912;-73
2023/06/29 01:01:00;;;;;;;;;;;;;;;24.27;45.72;101556.81;5065349;28;19935;-73
2023/06/29 01:03:25;;;;;;;;;;;;;;;24.27;45.81;101553.25;5065117;28;19916;-73
2023/06/29 01:05:51;;;;;;;;;;;;;;;24.27;45.85;101556.81;5063824;28;19913;-73
2023/06/29 01:08:17;;;;;;;;;;;;;;;24.26;46.00;101546.97;5054151;28;19920;-73
2023/06/29 01:10:43;;;;;;;;;;;;;;;24.25;45.79;101550.69;5039564;28;20380;-74
2023/06/29 01:13:08;;;;;;;;;;;;;;;24.24;45.77;101540.88;5056165;28;19947;-73
2023/06/29 01:15:33;;;;;;;;;;;;;;;24.25;45.94;101547.16;5055066;28;20370;-73
2023/06/29 01:17:58;;;;;;;;;;;;;;;24.24;45.73;101549.03;5060812;28;19965;-70
2023/06/29 01:20:25;;;;;;;;;;;;;;;24.25;45.93;101547.16;5054800;28;19913;-73
2023/06/29 01:23:10;;;;;;;;;;;;;;;24.25;45.74;101544.44;5042993;28;19952;-73
2023/06/29 01:25:36;;;;;;;;;;;;;;;24.25;45.92;101549.84;5069751;28;19913;-73
2023/06/29 01:28:10;;;;;;;;;;;;;;;24.23;45.88;101538.34;5061090;28;19979;-73
2023/06/29 01:30:48;;;;;;;;;;;;;;;24.22;45.83;101532.06;5064789;28;19923;-73
2023/06/29 01:33:13;;;;;;;;;;;;;;;24.23;45.83;101538.34;5068582;28;19921;-73
2023/06/29 01:35:39;;;;;;;;;;;;;;;24.22;45.94;101545.66;5070347;28;19920;-73
2023/06/29 01:38:09;;;;;;;;;;;;;;;24.22;46.09;101536.66;5056548;28;19913;-73
2023/06/29 01:40:34;;;;;;;;;;;;;;;24.21;46.03;101535.81;5054846;28;19912;-73
2023/06/29 01:43:00;;;;;;;;;;;;;;;24.21;45.87;101533.09;5062430;28;20470;-73
2023/06/29 01:45:25;;;;;;;;;;;;;;;24.22;46.11;101528.53;5062102;28;20277;-73
2023/06/29 01:47:50;;;;;;;;;;;;;;;24.21;45.98;101522.22;5071278;28;19912;-73
2023/06/29 01:50:18;;;;;;;;;;;;;;;24.21;46.01;101524.94;5059027;28;20345;-73
2023/06/29 01:52:44;;;;;;;;;;;;;;;24.22;45.90;101525.81;5049840;28;20015;-73
2023/06/29 01:55:11;;;;;;;;;;;;;;;24.20;46.06;101528.69;5047632;28;19920;-71
2023/06/29 01:57:37;;;;;;;;;;;;;;;24.20;46.03;101523.25;5066298;28;19913;-71
2023/06/29 02:00:03;;;;;;;;;;;;;;;24.20;46.12;101525.97;5049783;28;19913;-72
2023/06/29 02:02:29;;;;;;;;;;;;;;;24.19;46.13;101530.56;5050152;28;19924;-71
2023/06/29 02:04:54;;;;;;;;;;;;;;;24.18;46.05;101523.47;5049135;28;19913;-72
2023/06/29 02:07:19;;;;;;;;;;;;;;;24.18;46.05;101526.19;5070276;28;19935;-72
2023/06/29 02:09:44;;;;;;;;;;;;;;;24.19;45.98;101529.72;5066215;28;19916;-71
2023/06/29 02:12:10;;;;;;;;;;;;;;;24.18;46.01;101523.47;5056200;28;19927;-72
2023/06/29 02:14:35;;;;;;;;;;;;;;;24.18;46.02;101519.91;5060507;28;19913;-71
2023/06/29 02:17:00;;;;;;;;;;;;;;;24.18;45.97;101533.47;5040506;28;20327;-71
2023/06/29 02:19:26;;;;;;;;;;;;;;;24.17;46.20;101529.06;5055100;28;19913;-71
2023/06/29 02:21:51;;;;;;;;;;;;;;;24.17;46.10;101529.06;5064271;28;19920;-72
2023/06/29 02:24:16;;;;;;;;;;;;;;;24.16;46.09;101525.50;5062230;28;19912;-71
2023/06/29 02:26:41;;;;;;;;;;;;;;;24.16;45.93;101525.50;5065989;28;19913;-72
2023/06/29 02:29:06;;;;;;;;;;;;;;;24.16;46.02;101521.94;5065989;28;19923;-72
2023/06/29 02:31:32;;;;;;;;;;;;;;;24.16;46.10;101530.09;5061399;28;19924;-72
2023/06/29 02:33:57;;;;;;;;;;;;;;;24.15;46.08;101523.81;5062894;28;19928;-72
2023/06/29 02:36:22;;;;;;;;;;;;;;;24.15;46.05;101518.38;5068017;28;20004;-72
2023/06/29 02:38:47;;;;;;;;;;;;;;;24.14;46.33;101522.16;5053995;28;19956;-72
2023/06/29 02:41:13;;;;;;;;;;;;;;;24.15;46.04;101512.97;5074827;28;19934;-72
2023/06/29 02:43:38;;;;;;;;;;;;;;;24.14;46.19;101510.44;5040131;28;19919;-72
2023/06/29 02:46:03;;;;;;;;;;;;;;;24.14;46.13;101508.56;5064530;28;19912;-72
2023/06/29 02:48:28;;;;;;;;;;;;;;;24.14;46.09;101508.56;5069462;28;19917;-73
2023/06/29 02:50:53;;;;;;;;;;;;;;;24.13;46.16;101508.75;5062051;28;20042;-72
2023/06/29 02:53:19;;;;;;;;;;;;;;;24.13;46.05;101503.31;5065027;28;19966;-72
2023/06/29 02:55:44;;;;;;;;;;;;;;;24.12;46.24;101502.47;5065164;28;20370;-72
2023/06/29 02:58:09;;;;;;;;;;;;;;;24.13;46.05;101495.19;5065158;28;19919;-72
2023/06/29 03:00:34;;;;;;;;;;;;;;;24.11;46.21;101489.06;5060441;28;19913;-72
2023/06/29 03:03:00;;;;;;;;;;;;;;;24.12;45.96;101488.03;5072611;28;20381;-72
2023/06/29 03:05:25;;;;;;;;;;;;;;;24.12;46.24;101488.03;5038734;28;19913;-72
2023/06/29 03:07:50;;;;;;;;;;;;;;;24.11;46.15;101491.78;5056078;28;19913;-72
2023/06/29 03:10:15;;;;;;;;;;;;;;;24.10;46.12;101484.69;5064035;28;19913;-72
2023/06/29 03:12:41;;;;;;;;;;;;;;;24.11;46.00;101483.63;5035910;28;19927;-72
2023/06/29 03:15:06;;;;;;;;;;;;;;;24.10;46.09;101488.22;5071307;28;19952;-72
2023/06/29 03:17:31;;;;;;;;;;;;;;;24.10;46.25;101476.53;5061251;28;19921;-73
2023/06/29 03:19:57;;;;;;;;;;;;;;;24.10;46.22;101479.25;5051753;28;19949;-72
2023/06/29 03:22:23;;;;;;;;;;;;;;;24.10;46.24;101471.09;5065513;28;19909;-72
2023/06/29 03:24:48;;;;;;;;;;;;;;;24.10;46.03;101479.25;5067471;28;19976;-72
2023/06/29 03:27:13;;;;;;;;;;;;;;;24.09;46.18;101483.84;5043787;28;19912;-72
2023/06/29 03:29:38;;;;;;;;;;;;;;;24.09;46.13;101474.84;5069796;28;19920;-72
2023/06/29 03:32:04;;;;;;;;;;;;;;;24.09;46.18;101475.69;5060516;28;19932;-72
2023/06/29 03:34:29;;;;;;;;;;;;;;;24.08;46.34;101473.97;5063711;28;19920;-72
2023/06/29 03:36:54;;;;;;;;;;;;;;;24.08;46.14;101475.88;5050741;28;19912;-71
2023/06/29 03:39:19;;;;;;;;;;;;;;;24.08;46.09;101475.88;5055944;28;19916;-72
2023/06/29 03:41:44;;;;;;;;;;;;;;;24.08;46.17;101475.88;5071840;28;19917;-72
2023/06/29 03:44:10;;;;;;;;;;;;;;;24.07;46.26;101477.75;5060829;28;20004;-73
2023/06/29 03:46:35;;;;;;;;;;;;;;;24.06;46.39;101473.34;5062794;28;19920;-72
2023/06/29 03:49:00;;;;;;;;;;;;;;;24.08;46.32;101470.44;5053747;28;19916;-72
2023/06/29 03:51:25;;;;;;;;;;;;;;;24.06;46.31;101470.63;5051054;28;20007;-72
2023/06/29 03:53:50;;;;;;;;;;;;;;;24.06;46.25;101470.63;5061493;28;19912;-72
2023/06/29 03:56:16;;;;;;;;;;;;;;;24.06;46.21;101465.19;5063988;28;20048;-72
2023/06/29 03:58:41;;;;;;;;;;;;;;;24.07;46.28;101466.03;5064480;28;19917;-72
2023/06/29 04:01:06;;;;;;;;;;;;;;;24.06;46.28;101462.47;5059884;28;19970;-72
2023/06/29 04:03:31;;;;;;;;;;;;;;;24.06;46.38;101459.75;5071711;28;19920;-72
2023/06/29 04:05:57;;;;;;;;;;;;;;;24.06;46.19;101454.31;5056372;28;19952;-73
2023/06/29 04:08:22;;;;;;;;;;;;;;;24.05;46.23;101452.66;5068771;28;19968;-72
2023/06/29 04:10:47;;;;;;;;;;;;;;;24.06;46.42;101456.22;5064577;28;19922;-72
2023/06/29 04:13:12;;;;;;;;;;;;;;;24.06;46.46;101453.50;5042344;28;19924;-73
2023/06/29 04:15:37;;;;;;;;;;;;;;;24.06;46.44;101456.22;5070898;28;19940;-72
2023/06/29 04:18:03;;;;;;;;;;;;;;;24.06;46.23;101450.78;5062160;28;19920;-72
2023/06/29 04:20:28;;;;;;;;;;;;;;;24.05;46.29;101449.94;5061436;28;19914;-72
2023/06/29 04:22:54;;;;;;;;;;;;;;;24.06;46.42;101446.19;5064771;28;19913;-72
2023/06/29 04:25:19;;;;;;;;;;;;;;;24.05;46.38;101452.66;5067371;28;19913;-72
2023/06/29 04:27:44;;;;;;;;;;;;;;;24.05;46.46;101451.81;5061084;28;19916;-73
2023/06/29 04:30:11;;;;;;;;;;;;;;;24.05;46.30;101446.38;5076234;28;19924;-72
2023/06/29 04:32:36;;;;;;;;;;;;;;;24.04;46.34;101448.22;5064315;28;19917;-72
2023/06/29 04:35:01;;;;;;;;;;;;;;;24.05;46.50;101447.22;5065695;28;19924;-72
2023/06/29 04:37:35;;;;;;;;;;;;;;;24.04;46.60;101456.38;5072393;28;19917;-72
2023/06/29 04:40:01;;;;;;;;;;;;;;;24.05;46.38;101449.94;5052411;28;19939;-72
2023/06/29 04:42:30;;;;;;;;;;;;;;;24.04;46.31;101447.38;5073567;28;20441;-72
2023/06/29 04:44:55;;;;;;;;;;;;;;;24.03;46.40;101446.53;5064106;28;19920;-72
2023/06/29 04:47:20;;;;;;;;;;;;;;;24.03;46.50;101446.53;5066043;28;19961;-72
2023/06/29 04:49:51;;;;;;;;;;;;;;;24.04;46.38;101439.25;5068878;28;19932;-72
2023/06/29 04:52:18;;;;;;;;;;;;;;;24.04;46.56;101441.97;5056806;28;20396;-72
2023/06/29 04:54:43;;;;;;;;;;;;;;;24.03;46.28;101441.13;5064132;28;19952;-72
2023/06/29 04:57:09;;;;;;;;;;;;;;;24.03;46.43;101435.69;5072262;28;19913;-72
2023/06/29 04:59:34;;;;;;;;;;;;;;;24.02;46.29;101436.72;5066303;28;19916;-72
2023/06/29 05:01:59;;;;;;;;;;;;;;;24.02;46.55;101438.59;5063973;28;19990;-72
2023/06/29 05:04:24;;;;;;;;;;;;;;;24.02;46.50;101436.72;5073445;28;19913;-72
2023/06/29 05:06:50;;;;;;;;;;;;;;;24.02;46.46;101436.72;5058176;28;20405;-72
2023/06/29 05:09:15;;;;;;;;;;;;;;;24.03;46.53;101440.28;5056678;28;19939;-73
2023/06/29 05:11:41;;;;;;;;;;;;;;;24.02;46.50;101438.59;5063526;28;19917;-72
2023/06/29 05:14:06;;;;;;;;;;;;;;;24.03;46.28;101445.72;5047878;28;19919;-72
2023/06/29 05:16:31;;;;;;;;;;;;;;;24.03;46.44;101443.00;5069321;28;19924;-72
2023/06/29 05:18:56;;;;;;;;;;;;;;;24.01;46.41;101435.03;5069209;28;19917;-72
2023/06/29 05:21:22;;;;;;;;;;;;;;;24.02;46.55;101433.16;5061131;28;20425;-72
2023/06/29 05:23:47;;;;;;;;;;;;;;;24.02;46.36;101430.44;5055764;28;19955;-72
2023/06/29 05:26:12;;;;;;;;;;;;;;;24.01;46.44;101432.34;5068547;28;19920;-72
2023/06/29 05:28:37;;;;;;;;;;;;;;;24.02;46.48;101428.56;5057987;28;20361;-72
2023/06/29 05:31:03;;;;;;;;;;;;;;;24.02;46.67;101420.44;5061894;28;19917;-73
2023/06/29 05:33:28;;;;;;;;;;;;;;;24.00;46.66;101422.50;5057700;28;19921;-72
2023/06/29 05:35:53;;;;;;;;;;;;;;;24.00;46.67;101417.06;5067539;28;19971;-72
2023/06/29 05:38:18;;;;;;;;;;;;;;;24.02;46.60;101425.03;5068898;28;19923;-72
2023/06/29 05:40:44;;;;;;;;;;;;;;;24.01;46.50;101421.47;5044039;28;19924;-72
2023/06/29 05:43:09;;;;;;;;;;;;;;;24.01;46.69;101412.47;5049365;28;19913;-72
2023/06/29 05:45:35;;;;;;;;;;;;;;;24.01;46.63;101407.03;5064665;28;19913;-72
2023/06/29 05:48:00;;;;;;;;;;;;;;;24.01;46.57;101412.47;5065125;28;19988;-72
2023/06/29 05:50:26;;;;;;;;;;;;;;;24.01;46.47;101409.75;5065665;28;19919;-72
2023/06/29 05:52:51;;;;;;;;;;;;;;;24.01;46.54;101404.34;5071128;28;20058;-72
2023/06/29 05:55:16;;;;;;;;;;;;;;;24.00;46.75;101402.63;5057453;28;19917;-72
2023/06/29 05:57:41;;;;;;;;;;;;;;;24.00;46.68;101399.91;5074382;28;19913;-72
2023/06/29 06:00:09;;;;;;;;;;;;;;;24.00;46.79;101399.91;5063130;28;19972;-72
2023/06/29 06:02:36;;;;;;;;;;;;;;;23.98;46.69;101396.56;5045299;28;19991;-72
2023/06/29 06:05:01;;;;;;;;;;;;;;;23.99;46.67;101398.22;5070607;28;20293;-72
2023/06/29 06:07:30;;;;;;;;;;;;;;;23.97;46.75;101398.44;5059316;28;19944;-72
2023/06/29 06:09:56;;;;;;;;;;;;;;;23.97;46.83;101398.44;5066031;28;19927;-72
2023/06/29 06:12:21;;;;;;;;;;;;;;;23.97;46.74;101405.75;5051333;28;19917;-72
2023/06/29 06:14:46;;;;;;;;;;;;;;;23.96;46.81;101399.47;5067578;28;19962;-72
2023/06/29 06:17:12;;;;;;;;;;;;;;;23.95;46.83;101401.31;5048490;28;19924;-72
2023/06/29 06:19:37;;;;;;;;;;;;;;;23.95;46.90;101404.03;5055992;28;19924;-72
2023/06/29 06:22:03;;;;;;;;;;;;;;;23.95;46.95;101403.19;5058859;28;19937;-72
2023/06/29 06:24:28;;;;;;;;;;;;;;;23.95;46.80;101397.75;5070033;28;19912;-72
2023/06/29 06:26:53;;;;;;;;;;;;;;;23.93;46.71;101395.25;5066622;28;19913;-72
2023/06/29 06:29:18;;;;;;;;;;;;;;;23.95;46.75;101400.47;5055973;28;19940;-72
2023/06/29 06:31:43;;;;;;;;;;;;;;;23.95;46.69;101400.47;5075179;28;19927;-72
2023/06/29 06:34:09;;;;;;;;;;;;;;;23.94;46.66;101394.22;5059504;28;20361;-72
2023/06/29 06:36:34;;;;;;;;;;;;;;;23.94;46.83;101401.53;5065515;28;19913;-72
2023/06/29 06:38:59;;;;;;;;;;;;;;;23.93;47.00;101403.41;5048737;28;19917;-72
2023/06/29 06:41:24;;;;;;;;;;;;;;;23.95;46.81;101401.31;5045955;28;19955;-72
2023/06/29 06:43:50;;;;;;;;;;;;;;;23.93;46.61;101397.97;5063765;28;19960;-72
2023/06/29 06:46:15;;;;;;;;;;;;;;;23.95;46.65;101395.03;5065140;28;19951;-72
2023/06/29 06:48:40;;;;;;;;;;;;;;;23.94;46.72;101405.06;5035099;28;19913;-72
2023/06/29 06:51:05;;;;;;;;;;;;;;;23.94;46.91;101399.63;5051926;28;19917;-72
2023/06/29 06:53:30;;;;;;;;;;;;;;;23.95;46.52;101397.75;5070115;28;19952;-72
2023/06/29 06:55:56;;;;;;;;;;;;;;;23.95;46.74;101384.19;5054148;28;19913;-72
2023/06/29 06:58:21;;;;;;;;;;;;;;;23.94;46.47;101387.94;5074680;28;19939;-72
2023/06/29 07:00:46;;;;;;;;;;;;;;;23.95;46.65;101395.88;5061742;28;19935;-73
2023/06/29 07:03:11;;;;;;;;;;;;;;;23.97;46.43;101392.16;5047750;28;19912;-73
2023/06/29 07:05:36;;;;;;;;;;;;;;;23.96;46.35;101399.47;5070162;28;19917;-72
2023/06/29 07:08:02;;;;;;;;;;;;;;;23.95;46.56;101398.59;5062536;28;19916;-73
2023/06/29 07:10:27;;;;;;;;;;;;;;;23.97;46.47;101408.47;5047433;28;19977;-73
2023/06/29 07:12:52;;;;;;;;;;;;;;;23.96;46.34;101402.19;5064496;28;19924;-73
2023/06/29 07:15:17;;;;;;;;;;;;;;;23.97;46.50;101393.00;5066568;28;19921;-72
2023/06/29 07:17:42;;;;;;;;;;;;;;;23.98;46.26;101399.28;5059098;28;19921;-73
2023/06/29 07:20:08;;;;;;;;;;;;;;;23.97;46.51;101386.72;5070692;28;19920;-73
2023/06/29 07:22:33;;;;;;;;;;;;;;;23.97;46.57;101384.84;5059272;28;20663;-73
2023/06/29 07:25:00;;;;;;;;;;;;;;;23.97;46.49;101393.00;5066578;28;19919;-72
2023/06/29 07:27:25;;;;;;;;;;;;;;;23.97;46.47;101386.72;5055246;28;19959;-73
2023/06/29 07:29:50;;;;;;;;;;;;;;;23.98;46.37;101388.41;5038290;28;19939;-73
2023/06/29 07:32:16;;;;;;;;;;;;;;;23.97;46.41;101381.28;5072524;28;19924;-73
2023/06/29 07:34:41;;;;;;;;;;;;;;;23.96;46.52;101391.31;5058765;28;19919;-73
2023/06/29 07:37:06;;;;;;;;;;;;;;;23.97;46.57;101384.84;5062145;28;19956;-73
2023/06/29 07:39:33;;;;;;;;;;;;;;;23.97;46.36;101382.13;5066033;28;19913;-72
2023/06/29 07:42:01;;;;;;;;;;;;;;;23.98;46.46;101377.53;5048200;28;19975;-72
2023/06/29 07:44:27;;;;;;;;;;;;;;;23.97;46.31;101376.69;5050132;28;19919;-73
2023/06/29 07:46:53;;;;;;;;;;;;;;;23.98;46.31;101372.09;5051776;28;19951;-72
2023/06/29 07:49:18;;;;;;;;;;;;;;;23.98;46.51;101381.09;5061454;28;19921;-73
2023/06/29 07:51:43;;;;;;;;;;;;;;;23.99;46.36;101379.22;5062845;28;20338;-73
2023/06/29 07:54:09;;;;;;;;;;;;;;;23.98;46.22;101372.94;5070740;28;19919;-73
2023/06/29 07:56:34;;;;;;;;;;;;;;;23.98;46.50;101370.22;5047126;28;19920;-72
2023/06/29 07:58:59;;;;;;;;;;;;;;;23.98;46.31;101374.81;5053973;28;19962;-73
2023/06/29 08:01:24;;;;;;;;;;;;;;;24.00;46.31;101372.75;5061702;28;19912;-73
2023/06/29 08:03:50;;;;;;;;;;;;;;;23.99;46.27;101380.06;5043890;28;19969;-72
2023/06/29 08:06:15;;;;;;;;;;;;;;;23.99;46.39;101366.47;5068287;28;20386;-73
2023/06/29 08:08:40;;;;;;;;;;;;;;;23.99;46.21;101365.63;5064062;28;19913;-73
2023/06/29 08:11:06;;;;;;;;;;;;;;;24.00;46.55;101370.03;5040982;28;20340;-73
2023/06/29 08:13:31;;;;;;;;;;;;;;;24.00;46.45;101368.19;5066111;28;19916;-73
2023/06/29 08:15:56;;;;;;;;;;;;;;;24.00;46.55;101362.75;5064441;28;19921;-72
2023/06/29 08:18:22;;;;;;;;;;;;;;;24.01;46.25;101369.03;5056443;28;19912;-73
2023/06/29 08:20:47;;;;;;;;;;;;;;;24.01;46.26;101366.31;5072811;28;19920;-73
2023/06/29 08:23:13;;;;;;;;;;;;;;;24.01;46.53;101352.72;5057207;28;19923;-73
2023/06/29 08:25:38;;;;;;;;;;;;;;;24.01;46.37;101355.44;5037936;28;19913;-72
2023/06/29 08:28:04;;;;;;;;;;;;;;;24.03;46.47;101364.22;5065982;28;20374;-73
2023/06/29 08:30:29;;;;;;;;;;;;;;;24.02;46.48;101357.94;5058342;28;19919;-73
2023/06/29 08:32:54;;;;;;;;;;;;;;;24.03;46.58;101358.78;5066071;28;19924;-73
2023/06/29 08:35:19;;;;;;;;;;;;;;;24.03;46.58;101356.91;5059759;28;20016;-72
2023/06/29 08:37:45;;;;;;;;;;;;;;;24.02;46.37;101360.66;5058821;28;19912;-73
2023/06/29 08:40:10;;;;;;;;;;;;;;;24.04;46.61;101355.03;5064857;28;19921;-73
2023/06/29 08:42:37;;;;;;;;;;;;;;;24.03;46.49;101350.63;5067563;28;19917;-72
2023/06/29 08:45:05;;;;;;;;;;;;;;;24.02;46.52;101355.22;5054969;28;19920;-73
2023/06/29 08:47:30;;;;;;;;;;;;;;;24.02;46.38;101347.09;5071161;28;19913;-73
2023/06/29 08:49:56;;;;;;;;;;;;;;;24.03;46.42;101348.75;5058823;28;19921;-73
2023/06/29 08:52:22;;;;;;;;;;;;;;;24.03;46.52;101350.63;5040632;28;19924;-73
2023/06/29 08:54:47;;;;;;;;;;;;;;;24.02;46.48;101338.94;5062982;28;19934;-73
2023/06/29 08:57:12;;;;;;;;;;;;;;;24.02;46.40;101349.81;5055502;28;19948;-73
2023/06/29 08:59:38;;;;;;;;;;;;;;;24.04;46.34;101352.31;5068670;28;19912;-73
2023/06/29 09:02:04;;;;;;;;;;;;;;;24.04;46.53;101347.72;5042471;28;19917;-73
2023/06/29 09:04:29;;;;;;;;;;;;;;;24.04;46.33;101353.16;5045254;28;19913;-72
2023/06/29 09:06:55;;;;;;;;;;;;;;;24.05;46.55;101345.88;5044176;28;19917;-73
2023/06/29 09:09:21;;;;;;;;;;;;;;;24.05;46.67;101349.44;5066008;28;19919;-73
2023/06/29 09:11:46;;;;;;;;;;;;;;;24.06;46.50;101351.09;5057602;28;19917;-73
2023/06/29 09:14:11;;;;;;;;;;;;;;;24.05;46.52;101357.56;5055841;28;19934;-73
2023/06/29 09:16:44;;;;;;;;;;;;;;;24.06;46.46;101353.81;5067396;28;19921;-73
2023/06/29 09:19:10;;;;;;;;;;;;;;;24.06;46.53;101355.69;5040714;28;19916;-73
2023/06/29 09:21:35;;;;;;;;;;;;;;;24.07;46.54;101349.22;5073476;28;19919;-73
2023/06/29 09:24:00;;;;;;;;;;;;;;;24.07;46.51;101349.22;5059324;28;20503;-73
2023/06/29 09:26:28;;;;;;;;;;;;;;;24.07;46.38;101346.50;5050649;28;20370;-73
2023/06/29 09:29:00;;;;;;;;;;;;;;;24.07;46.47;101347.34;5065972;28;20016;-73
2023/06/29 09:31:32;;;;;;;;;;;;;;;24.07;46.54;101341.91;5065111;28;19920;-72
2023/06/29 09:34:10;;;;;;;;;;;;;;;24.08;46.41;101342.75;5058269;28;19923;-73
2023/06/29 09:36:36;;;;;;;;;;;;;;;24.08;46.50;101348.19;5049356;28;19912;-72
2023/06/29 09:39:04;;;;;;;;;;;;;;;24.08;46.47;101335.44;5059924;28;19920;-73
2023/06/29 09:41:29;;;;;;;;;;;;;;;24.08;46.50;101332.72;5071033;28;19959;-72
2023/06/29 09:43:55;;;;;;;;;;;;;;;24.10;46.48;101337.97;5066914;28;19912;-72
2023/06/29 09:46:20;;;;;;;;;;;;;;;24.10;46.50;101337.97;5036273;28;19939;-73
2023/06/29 09:48:46;;;;;;;;;;;;;;;24.10;46.59;101332.56;5075656;28;19913;-73
2023/06/29 09:51:17;;;;;;;;;;;;;;;24.11;46.53;101337.78;5059602;28;19936;-73
2023/06/29 09:53:42;;;;;;;;;;;;;;;24.11;46.73;101339.66;5052003;28;19916;-73
2023/06/29 09:56:08;;;;;;;;;;;;;;;24.11;46.62;101331.50;5063831;28;19935;-72
2023/06/29 09:58:33;;;;;;;;;;;;;;;24.11;46.57;101335.06;5062384;28;20015;-73
2023/06/29 10:00:59;;;;;;;;;;;;;;;24.12;46.55;101327.75;5048305;28;19913;-73
2023/06/29 10:03:25;;;;;;;;;;;;;;;24.12;46.47;101331.31;5066336;28;19940;-72
2023/06/29 10:05:51;;;;;;;;;;;;;;;24.14;46.73;101333.84;5043876;28;19917;-73
2023/06/29 10:08:16;;;;;;;;;;;;;;;24.13;46.55;101329.44;5050526;28;19950;-73
2023/06/29 10:10:41;;;;;;;;;;;;;;;24.14;46.55;101328.41;5068543;28;19977;-73
2023/06/29 10:13:07;;;;;;;;;;;;;;;24.15;46.61;101335.53;5036159;28;19929;-73
2023/06/29 10:15:32;;;;;;;;;;;;;;;24.15;46.61;101330.09;5056872;28;19916;-73
2023/06/29 10:18:12;;;;;;;;;;;;;;;24.16;46.49;101334.47;5061119;28;19984;-73
2023/06/29 10:20:38;;;;;;;;;;;;;;;24.17;46.60;101328.88;5066796;28;19917;-73
2023/06/29 10:23:03;;;;;;;;;;;;;;;24.17;46.57;101334.31;5065064;28;19913;-73
2023/06/29 10:25:28;;;;;;;;;;;;;;;24.18;46.57;101324.28;5042520;28;19920;-73
2023/06/29 10:27:54;;;;;;;;;;;;;;;24.18;46.50;101314.25;5049270;28;19916;-73
2023/06/29 10:30:21;;;;;;;;;;;;;;;24.19;46.56;101310.47;5064280;28;19912;-73
2023/06/29 10:32:47;;;;;;;;;;;;;;;24.19;46.45;101307.78;5045839;28;19917;-73
2023/06/29 10:35:13;;;;;;;;;;;;;;;24.19;46.63;101307.78;5033041;28;19923;-74
2023/06/29 10:37:40;;;;;;;;;;;;;;;24.21;46.73;101307.56;5052377;28;19917;-73
2023/06/29 10:40:11;;;;;;;;;;;;;;;24.20;46.49;101306.72;5038833;28;19980;-73
2023/06/29 10:42:37;;;;;;;;;;;;;;;24.22;46.63;101308.44;5055443;28;19913;-71
2023/06/29 10:45:02;;;;;;;;;;;;;;;24.23;46.63;101312.81;5061106;28;19932;-72
2023/06/29 10:47:28;;;;;;;;;;;;;;;24.22;46.56;101306.56;5043463;28;20356;-72
2023/06/29 10:50:13;;;;;;;;;;;;;;;24.24;46.42;101315.34;5068667;28;20373;-71
2023/06/29 10:52:39;;;;;;;;;;;;;;;24.24;46.71;101309.91;5057840;28;19931;-72
2023/06/29 10:55:22;;;;;;;;;;;;;;;24.25;46.48;101317.00;5053164;28;19913;-71
2023/06/29 10:57:50;;;;;;;;;;;;;;;24.27;46.59;101312.25;5059579;28;19999;-72
2023/06/29 11:00:15;;;;;;;;;;;;;;;24.29;46.51;101310.16;5060973;28;19973;-72
2023/06/29 11:02:41;;;;;;;;;;;;;;;24.29;46.47;101307.44;5062577;28;19912;-73
2023/06/29 11:05:06;;;;;;;;;;;;;;;24.30;46.49;101311.84;5050328;28;19990;-72
2023/06/29 11:07:31;;;;;;;;;;;;;;;24.31;46.47;101301.81;5059259;28;19917;-73
2023/06/29 11:10:00;;;;;;;;;;;;;;;24.31;46.63;101302.66;5054043;28;19956;-73
2023/06/29 11:12:25;;;;;;;;;;;;;;;24.32;46.63;101301.63;5059644;28;19917;-73
2023/06/29 11:14:51;;;;;;;;;;;;;;;24.32;46.54;101304.34;5063527;28;19916;-72
2023/06/29 11:17:17;;;;;;;;;;;;;;;24.34;46.34;101295.97;5066927;28;19921;-73
2023/06/29 11:19:42;;;;;;;;;;;;;;;24.34;46.55;101296.84;5055813;28;20415;-73
2023/06/29 11:22:08;;;;;;;;;;;;;;;24.35;46.66;101298.53;5067244;28;19920;-73
2023/06/29 11:24:35;;;;;;;;;;;;;;;24.35;46.49;101303.13;5060862;28;20011;-72
2023/06/29 11:27:01;;;;;;;;;;;;;;;24.37;46.54;101295.59;5063436;28;20011;-72
2023/06/29 11:29:26;;;;;;;;;;;;;;;24.37;46.66;101301.91;5049119;28;19913;-72
2023/06/29 11:31:52;;;;;;;;;;;;;;;24.38;46.58;101291.88;5048354;28;19917;-73
2023/06/29 11:34:17;;;;;;;;;;;;;;;24.38;46.49;101298.16;5038527;28;20025;-72
2023/06/29 11:36:42;;;;;;;;;;;;;;;24.39;46.52;101294.41;5050702;28;19913;-73
2023/06/29 11:39:08;;;;;;;;;;;;;;;24.39;46.46;101297.13;5063469;28;19988;-72
2023/06/29 11:41:37;;;;;;;;;;;;;;;24.40;46.32;101297.97;5054448;28;19916;-72
2023/06/29 11:44:02;;;;;;;;;;;;;;;24.40;46.50;101293.38;5047645;28;19970;-72
2023/06/29 11:46:32;;;;;;;;;;;;;;;24.40;46.57;101289.81;5031747;28;19932;-73
2023/06/29 11:48:57;;;;;;;;;;;;;;;24.40;46.58;101281.66;5038877;28;19912;-73
2023/06/29 11:51:24;;;;;;;;;;;;;;;24.42;46.50;101282.28;5045543;28;19921;-73
2023/06/29 11:53:50;;;;;;;;;;;;;;;24.41;46.52;101286.88;5050563;28;19922;-73
2023/06/29 11:56:26;;;;;;;;;;;;;;;24.42;46.47;101282.28;5046223;28;19913;-72
2023/06/29 11:58:51;;;;;;;;;;;;;;;24.42;46.74;101282.28;5047985;28;19920;-72
2023/06/29 12:01:16;;;;;;;;;;;;;;;24.42;46.38;101276.84;5058769;28;19984;-71
2023/06/29 12:03:42;;;;;;;;;;;;;;;24.42;46.58;101276.84;5052155;28;19959;-72
2023/06/29 12:06:08;;;;;;;;;;;;;;;24.42;46.57;101271.41;5065142;28;20160;-73
2023/06/29 12:08:39;;;;;;;;;;;;;;;24.42;46.61;101269.56;5055352;28;19978;-72
2023/06/29 12:11:06;;;;;;;;;;;;;;;24.42;46.62;101271.41;5071113;28;19920;-72
2023/06/29 12:13:31;;;;;;;;;;;;;;;24.42;46.68;101272.28;5056406;28;19917;-72
2023/06/29 12:16:01;;;;;;;;;;;;;;;24.43;46.55;101278.56;5071781;28;19996;-72
2023/06/29 12:18:28;;;;;;;;;;;;;;;24.43;46.64;101263.09;5042303;28;19923;-72
2023/06/29 12:20:53;;;;;;;;;;;;;;;24.44;46.68;101272.06;5042082;28;19923;-72
2023/06/29 12:23:18;;;;;;;;;;;;;;;24.43;46.75;101268.50;5053111;28;19912;-72
2023/06/29 12:25:44;;;;;;;;;;;;;;;24.45;46.64;101262.88;5044548;28;19920;-72
2023/06/29 12:28:10;;;;;;;;;;;;;;;24.46;46.66;101261.81;5058792;28;19957;-72